Sumner, WA (98390)

3:05 PM PST on December 02, 2016 (GMT -0800)
Sumner Heights | | Change Station

Elev 312 ft 47.21 °N, 122.25 °W | Updated 8 seconds ago

Overcast
Overcast
48.4 °F
Feels Like 42 °F
N
17.0
Wind Variable Wind from SSW
Gusts 18.0 mph

Today
High -- | Low -- °F
--% Chance of Precip.
Yesterday
High -- | Low -- °F
Precip. -- in
Pressure 30.13 in
Visibility 4.0 miles
Clouds Mostly Cloudy 3000 ft
Overcast 3400 ft
Windchill 42 °F
Dew Point 44 °F
Humidity 83%
Rainfall 0.07 in
Snow Depth Not available.
7:36 AM 4:20 PM
Waxing Crescent, 11% visible
METAR KPLU 022255Z AUTO 19010G17KT 160V220 4SM BR BKN030 OVC034 09/07 A3013 RMK AO2
Pressure 30.13 in
Visibility 4.0 miles
Clouds Mostly Cloudy 3000 ft
Overcast 3400 ft
Windchill 42 °F
Dew Point 44 °F
Humidity 83%
Rainfall 0.07 in
Snow Depth Not available.
7:36 AM 4:20 PM
Waxing Crescent, 11% visible
METAR KPLU 022255Z AUTO 19010G17KT 160V220 4SM BR BKN030 OVC034 09/07 A3013 RMK AO2

10-Day Weather Forecast

Almanac

Astronomy

Dec. 02, 2016 Rise Set
Actual Time
Civil Twilight
Nautical Twilight
Astronomical Twilight
Moon
Length of Visible Light
Length of Day
Tomorrow will be .
, % of the Moon is Illuminated

Today's Extremes

State Highs State Lows

Community

WunderPhotos

Upload Photos

1,955,369 photos uploaded!

WunderBlog® & News

Nearby

Air Quality

  Air Quality AQ Index Pollutant
Not available.

Snow Depth

Station Depth Elevation

Earthquake Activity

City Distance Mag. Time & Date
Minimum magnitude displayed is 2.5.

Coastal Water Temperatures

Place Temperature

Stations

Nearby Weather Stations

Station Location Temp. Windchill Dew Point Humidity Wind Precip. Elev Updated Type
                   

Watches & Warnings

There are currently no watches in effect.